createdAt,value
2023-03-13T00:02:16.090Z,98883.01
2023-03-13T00:04:45.210Z,98885.16
2023-03-13T00:07:14.529Z,98886.04
2023-03-13T00:09:43.812Z,98888.05
2023-03-13T00:12:13.001Z,98893.67
2023-03-13T00:14:42.504Z,98901.95
2023-03-13T00:17:11.929Z,98900.16
2023-03-13T00:19:40.926Z,98911.44
2023-03-13T00:22:09.889Z,98911.89
2023-03-13T00:24:39.072Z,98915.79
2023-03-13T00:27:07.925Z,98916.47
2023-03-13T00:29:37.115Z,98917.45
2023-03-13T00:32:06.730Z,98913.98
2023-03-13T00:34:35.865Z,98909.77
2023-03-13T00:37:05.207Z,98907.80
2023-03-13T00:39:34.425Z,98904.93
2023-03-13T00:42:04.426Z,98907.77
2023-03-13T00:44:33.140Z,98908.63
2023-03-13T00:47:02.539Z,98910.73
2023-03-13T00:49:31.180Z,98913.62
2023-03-13T00:52:00.070Z,98919.89
2023-03-13T00:54:29.226Z,98925.75
2023-03-13T00:56:58.122Z,98925.84
2023-03-13T00:59:26.883Z,98927.55
2023-03-13T01:01:55.691Z,98930.27
2023-03-13T01:04:24.722Z,98942.64
2023-03-13T01:06:53.597Z,98940.99
2023-03-13T01:09:22.396Z,98946.70
2023-03-13T01:11:51.417Z,98951.95
2023-03-13T01:14:20.943Z,98951.20
2023-03-13T01:16:49.724Z,98953.88
2023-03-13T01:19:19.948Z,98953.02
2023-03-13T01:21:48.741Z,98951.27
2023-03-13T01:24:19.695Z,98954.84
2023-03-13T01:26:48.522Z,98946.95
2023-03-13T01:29:17.516Z,98946.06
2023-03-13T01:31:46.345Z,98948.54
2023-03-13T01:34:15.151Z,98950.17
2023-03-13T01:36:44.424Z,98947.39
2023-03-13T01:39:13.267Z,98950.11
2023-03-13T01:41:42.063Z,98954.00
2023-03-13T01:44:26.592Z,98957.80
2023-03-13T01:46:55.597Z,98960.57
2023-03-13T01:49:33.769Z,98961.23
2023-03-13T01:52:09.543Z,98958.08
2023-03-13T01:54:44.195Z,98959.69
2023-03-13T01:57:27.864Z,98955.38
2023-03-13T02:00:08.594Z,98961.30
2023-03-13T02:02:41.871Z,98962.01
2023-03-13T02:05:11.136Z,98968.15
2023-03-13T02:08:01.993Z,98964.20
2023-03-13T02:10:34.312Z,98960.14
2023-03-13T02:13:03.897Z,98958.00
2023-03-13T02:15:34.532Z,98958.36
2023-03-13T02:18:03.480Z,98955.13
2023-03-13T02:20:32.265Z,98959.45
2023-03-13T02:23:08.291Z,98957.73
2023-03-13T02:25:49.736Z,98964.05
2023-03-13T02:28:20.980Z,98963.80
2023-03-13T02:30:53.036Z,98960.98
2023-03-13T02:33:27.124Z,98963.52
2023-03-13T02:35:57.542Z,98965.70
2023-03-13T02:38:30.354Z,98965.44
2023-03-13T02:41:02.263Z,98965.16
2023-03-13T02:43:34.390Z,98967.45
2023-03-13T02:46:05.779Z,98967.42
2023-03-13T02:48:41.593Z,98964.88
2023-03-13T02:51:26.529Z,98965.05
2023-03-13T02:53:59.665Z,98966.26
2023-03-13T02:56:32.411Z,98967.72
2023-03-13T02:59:01.265Z,98975.52
2023-03-13T03:01:31.038Z,98974.60
2023-03-13T03:03:59.893Z,98979.16
2023-03-13T03:06:29.132Z,98981.30
2023-03-13T03:08:58.156Z,98984.77
2023-03-13T03:11:27.108Z,98990.94
2023-03-13T03:13:56.574Z,99000.34
2023-03-13T03:16:25.612Z,99006.27
2023-03-13T03:18:54.585Z,99010.33
2023-03-13T03:21:24.373Z,99008.95
2023-03-13T03:23:53.859Z,99007.60
2023-03-13T03:26:22.823Z,99011.35
2023-03-13T03:28:51.928Z,99008.56
2023-03-13T03:31:21.256Z,99016.06
2023-03-13T03:33:50.825Z,99017.41
2023-03-13T03:36:24.046Z,99021.88
2023-03-13T03:38:54.573Z,99027.89
2023-03-13T03:41:23.592Z,99030.21
2023-03-13T03:43:52.798Z,99024.30
2023-03-13T03:46:21.819Z,99020.33
2023-03-13T03:48:50.858Z,99023.41
2023-03-13T03:51:19.762Z,99022.56
2023-03-13T03:53:48.882Z,99019.85
2023-03-13T03:56:17.983Z,99013.28
2023-03-13T03:58:47.143Z,99015.92
2023-03-13T04:01:16.791Z,99011.52
2023-03-13T04:03:45.744Z,99012.37
2023-03-13T04:06:14.897Z,99011.91
2023-03-13T04:08:43.709Z,99014.42
2023-03-13T04:11:13.103Z,99010.80
2023-03-13T04:13:42.215Z,99010.42
2023-03-13T04:16:11.962Z,99012.84
2023-03-13T04:18:41.340Z,99010.60
2023-03-13T04:21:10.403Z,99006.73
2023-03-13T04:23:38.906Z,99001.31
2023-03-13T04:26:07.943Z,99000.77
2023-03-13T04:28:36.863Z,99007.06
2023-03-13T04:31:07.523Z,99007.21
2023-03-13T04:33:37.384Z,99006.15
2023-03-13T04:36:06.706Z,99007.09
2023-03-13T04:38:35.606Z,99010.52
2023-03-13T04:41:04.705Z,99015.36
2023-03-13T04:43:33.501Z,99017.30
2023-03-13T04:46:02.566Z,99018.15
2023-03-13T04:48:31.416Z,99019.03
2023-03-13T04:51:00.356Z,99017.48
2023-03-13T04:53:29.263Z,99016.06
2023-03-13T04:55:58.458Z,99015.49
2023-03-13T04:58:27.702Z,99014.48
2023-03-13T05:00:57.531Z,99014.91
2023-03-13T05:03:27.088Z,99019.62
2023-03-13T05:05:56.252Z,99030.68
2023-03-13T05:08:25.338Z,99034.70
2023-03-13T05:10:54.746Z,99036.20
2023-03-13T05:13:24.086Z,99033.95
2023-03-13T05:15:53.278Z,99043.13
2023-03-13T05:18:22.522Z,99047.75
2023-03-13T05:20:51.760Z,99045.10
2023-03-13T05:23:20.844Z,99046.27
2023-03-13T05:25:49.781Z,99054.63
2023-03-13T05:28:18.361Z,99054.19
2023-03-13T05:30:47.281Z,99048.80
2023-03-13T05:33:16.663Z,99050.34
2023-03-13T05:35:47.127Z,99050.10
2023-03-13T05:38:16.234Z,99049.20
2023-03-13T05:40:45.242Z,99047.24
2023-03-13T05:43:14.640Z,99051.86
2023-03-13T05:45:43.867Z,99055.84
2023-03-13T05:48:12.999Z,99058.77
2023-03-13T05:50:42.143Z,99057.42
2023-03-13T05:53:11.181Z,99058.42
2023-03-13T05:55:39.970Z,99059.21
2023-03-13T05:58:10.479Z,99060.54
2023-03-13T06:00:39.477Z,99060.10
2023-03-13T06:03:08.490Z,99058.73
2023-03-13T06:05:37.484Z,99050.88
2023-03-13T06:08:07.771Z,99046.84
2023-03-13T06:10:36.846Z,99046.44
2023-03-13T06:13:19.001Z,99056.48
2023-03-13T06:15:57.059Z,99053.88
2023-03-13T06:18:27.573Z,99044.70
2023-03-13T06:20:59.957Z,99037.14
2023-03-13T06:23:29.896Z,99036.61
2023-03-13T06:25:58.798Z,99036.92
2023-03-13T06:28:28.911Z,99032.36
2023-03-13T06:31:05.803Z,99036.98
2023-03-13T06:33:35.344Z,99032.94
2023-03-13T06:36:05.139Z,99035.14
2023-03-13T06:38:34.267Z,99036.61
2023-03-13T06:41:03.322Z,99043.53
2023-03-13T06:43:32.631Z,99042.56
2023-03-13T06:46:05.926Z,99050.42
2023-03-13T06:48:35.492Z,99052.79
2023-03-13T06:51:05.064Z,99054.14
2023-03-13T06:53:34.440Z,99055.77
2023-03-13T06:56:03.411Z,99056.54
2023-03-13T06:58:33.123Z,99057.77
2023-03-13T07:01:10.602Z,99059.80
2023-03-13T07:03:44.174Z,99056.22
2023-03-13T07:06:13.915Z,99055.76
2023-03-13T07:08:44.337Z,99057.54
2023-03-13T07:11:14.982Z,99058.02
2023-03-13T07:13:44.221Z,99056.48
2023-03-13T07:16:14.902Z,99060.98
2023-03-13T07:18:45.369Z,99062.80
2023-03-13T07:21:15.173Z,99063.98
2023-03-13T07:23:44.628Z,99064.95
2023-03-13T07:26:15.590Z,99071.00
2023-03-13T07:28:44.449Z,99072.30
2023-03-13T07:31:18.043Z,99073.88
2023-03-13T07:33:47.744Z,99079.01
2023-03-13T07:36:17.041Z,99074.31
2023-03-13T07:38:50.794Z,99073.77
2023-03-13T07:41:20.986Z,99078.02
2023-03-13T07:43:50.671Z,99078.12
2023-03-13T07:46:22.343Z,99087.88
2023-03-13T07:48:53.372Z,99085.02
2023-03-13T07:51:42.211Z,99087.77
2023-03-13T07:54:12.172Z,99089.04
2023-03-13T07:56:41.485Z,99082.49
2023-03-13T07:59:11.604Z,99078.65
2023-03-13T08:01:41.553Z,99083.58
2023-03-13T08:04:14.639Z,99085.00
2023-03-13T08:06:43.645Z,99086.48
2023-03-13T08:09:13.374Z,99084.77
2023-03-13T08:11:44.870Z,99082.52
2023-03-13T08:14:13.536Z,99088.27
2023-03-13T08:16:42.726Z,99091.48
2023-03-13T08:19:12.022Z,99087.19
2023-03-13T08:21:41.131Z,99085.29
2023-03-13T08:24:13.347Z,99084.77
2023-03-13T08:26:43.719Z,99086.79
2023-03-13T08:29:15.322Z,99085.79
2023-03-13T08:31:48.168Z,99081.27
2023-03-13T08:34:19.066Z,99087.05
2023-03-13T08:36:49.329Z,99090.53
2023-03-13T08:39:20.808Z,99084.98
2023-03-13T08:41:50.514Z,99087.68
2023-03-13T08:44:21.685Z,99089.43
2023-03-13T08:46:51.072Z,99089.17
2023-03-13T08:49:20.589Z,99092.45
2023-03-13T08:51:49.555Z,99090.14
2023-03-13T08:54:18.664Z,99094.23
2023-03-13T08:56:47.973Z,99096.00
2023-03-13T08:59:17.103Z,99094.15
2023-03-13T09:01:45.945Z,99098.61
2023-03-13T09:04:15.828Z,99105.40
2023-03-13T09:06:45.295Z,99102.20
2023-03-13T09:09:14.875Z,99100.21
2023-03-13T09:11:44.353Z,99098.16
2023-03-13T09:14:13.471Z,99093.85
2023-03-13T09:16:43.302Z,99089.76
2023-03-13T09:19:13.439Z,99090.88
2023-03-13T09:21:42.485Z,99093.09
2023-03-13T09:24:11.919Z,99091.86
2023-03-13T09:26:46.514Z,99094.59
2023-03-13T09:29:21.076Z,99092.83
2023-03-13T09:31:50.009Z,99092.28
2023-03-13T09:34:19.148Z,99095.08
2023-03-13T09:36:48.266Z,99098.39
2023-03-13T09:39:17.509Z,99095.60
2023-03-13T09:42:03.377Z,99087.88
2023-03-13T09:45:00.550Z,99094.77
2023-03-13T09:47:51.386Z,99098.29
2023-03-13T09:50:32.424Z,99097.09
2023-03-13T09:53:16.170Z,99099.98
2023-03-13T09:55:47.875Z,99096.20
2023-03-13T09:58:23.733Z,99096.25
2023-03-13T10:00:59.127Z,99097.05
2023-03-13T10:03:41.995Z,99091.23
2023-03-13T10:06:19.250Z,99085.06
2023-03-13T10:08:49.105Z,99081.08
2023-03-13T10:11:24.777Z,99072.27
2023-03-13T10:14:16.573Z,99074.22
2023-03-13T10:17:04.279Z,99067.78
2023-03-13T10:19:42.772Z,99062.83
2023-03-13T10:22:26.750Z,99065.66
2023-03-13T10:25:05.957Z,99063.42
2023-03-13T10:27:51.095Z,99064.41
2023-03-13T10:30:27.488Z,99057.77
2023-03-13T10:33:13.259Z,99067.48
2023-03-13T10:35:44.845Z,99067.55
2023-03-13T10:38:19.896Z,99062.21
2023-03-13T10:41:07.050Z,99060.65
2023-03-13T10:43:36.686Z,99065.98
2023-03-13T10:46:09.659Z,99063.48
2023-03-13T10:48:40.590Z,99061.88
2023-03-13T10:51:23.120Z,99054.48
2023-03-13T10:53:53.009Z,99051.64
2023-03-13T10:56:30.846Z,99053.41
2023-03-13T10:59:02.283Z,99042.36
2023-03-13T11:01:45.555Z,99044.48
2023-03-13T11:04:35.613Z,99039.73
2023-03-13T11:07:06.507Z,99047.41
2023-03-13T11:09:36.002Z,99038.40
2023-03-13T11:12:21.467Z,99047.85
2023-03-13T11:14:59.164Z,99048.48
2023-03-13T11:17:38.625Z,99044.20
2023-03-13T11:20:27.288Z,99053.09
2023-03-13T11:23:25.107Z,99051.61
2023-03-13T11:26:16.183Z,99047.77
2023-03-13T11:29:08.042Z,99049.04
2023-03-13T11:31:42.629Z,99041.34
2023-03-13T11:34:18.435Z,99038.71
2023-03-13T11:36:54.174Z,99039.48
2023-03-13T11:39:35.313Z,99033.27
2023-03-13T11:42:17.936Z,99039.89
2023-03-13T11:44:57.137Z,99032.83
2023-03-13T11:47:44.194Z,99028.14
2023-03-13T11:50:31.733Z,99020.86
2023-03-13T11:53:14.199Z,99020.20
2023-03-13T11:55:57.713Z,99010.98
2023-03-13T11:58:38.658Z,99000.33
2023-03-13T12:01:30.783Z,98999.67
2023-03-13T12:04:40.135Z,98996.41
2023-03-13T12:07:29.040Z,98989.85
2023-03-13T12:10:05.202Z,98991.33
2023-03-13T12:12:44.184Z,98999.61
2023-03-13T12:15:20.100Z,98985.98
2023-03-13T12:18:04.625Z,98984.29
2023-03-13T12:20:46.043Z,98983.39
2023-03-13T12:23:20.152Z,98974.45
2023-03-13T12:26:14.159Z,98969.20
2023-03-13T12:29:01.740Z,98971.83
2023-03-13T12:31:43.089Z,98963.02
2023-03-13T12:34:24.203Z,98967.43
2023-03-13T12:37:27.255Z,98967.61
2023-03-13T12:40:10.364Z,98964.27
2023-03-13T12:42:49.094Z,98958.08
2023-03-13T12:45:22.248Z,98959.52
2023-03-13T12:47:51.074Z,98954.98
2023-03-13T12:50:27.386Z,98944.92
2023-03-13T12:53:20.789Z,98944.01
2023-03-13T12:56:19.069Z,98944.29
2023-03-13T12:58:49.864Z,98939.91
2023-03-13T13:01:25.938Z,98945.97
2023-03-13T13:04:13.227Z,98943.90
2023-03-13T13:06:56.980Z,98936.84
2023-03-13T13:09:29.200Z,98924.98
2023-03-13T13:12:20.508Z,98922.92
2023-03-13T13:14:49.822Z,98917.98
2023-03-13T13:17:57.106Z,98921.43
2023-03-13T13:20:53.886Z,98923.06
2023-03-13T13:23:25.397Z,98915.17
2023-03-13T13:25:57.653Z,98919.04
2023-03-13T13:28:36.420Z,98922.38
2023-03-13T13:31:46.906Z,98926.54
2023-03-13T13:34:31.591Z,98925.01
2023-03-13T13:37:25.503Z,98928.23
2023-03-13T13:39:55.679Z,98925.17
2023-03-13T13:42:59.761Z,98917.08
2023-03-13T13:45:32.649Z,98913.94
2023-03-13T13:48:20.932Z,98914.98
2023-03-13T13:51:12.302Z,98910.05
2023-03-13T13:53:45.902Z,98900.58
2023-03-13T13:56:27.035Z,98906.25
2023-03-13T13:59:27.469Z,98910.27
2023-03-13T14:02:10.411Z,98905.45
2023-03-13T14:05:07.670Z,98905.98
2023-03-13T14:07:49.116Z,98902.58
2023-03-13T14:10:34.541Z,98904.94
2023-03-13T14:13:18.484Z,98896.40
2023-03-13T14:15:50.755Z,98891.08
2023-03-13T14:18:25.067Z,98891.05
2023-03-13T14:21:04.261Z,98887.88
2023-03-13T14:23:47.873Z,98884.28
2023-03-13T14:26:22.255Z,98885.73
2023-03-13T14:28:53.363Z,98886.33
2023-03-13T14:31:28.082Z,98882.98
2023-03-13T14:34:01.990Z,98879.25
2023-03-13T14:36:45.879Z,98879.39
2023-03-13T14:39:33.585Z,98876.23
2023-03-13T14:42:21.335Z,98872.74
2023-03-13T14:44:50.599Z,98867.90
2023-03-13T14:47:24.355Z,98860.27
2023-03-13T14:50:05.076Z,98861.67
2023-03-13T14:52:35.317Z,98861.14
2023-03-13T14:55:26.110Z,98854.67
2023-03-13T14:57:59.221Z,98848.15
2023-03-13T15:00:46.384Z,98844.53
2023-03-13T15:03:22.612Z,98841.44
2023-03-13T15:06:11.192Z,98842.34
2023-03-13T15:08:44.838Z,98837.41
2023-03-13T15:11:43.373Z,98833.05
2023-03-13T15:14:36.729Z,98830.88
2023-03-13T15:17:14.977Z,98835.07
2023-03-13T15:19:48.534Z,98830.29
2023-03-13T15:22:19.547Z,98823.68
2023-03-13T15:25:04.939Z,98822.65
2023-03-13T15:27:35.488Z,98830.06
2023-03-13T15:30:05.312Z,98825.60
2023-03-13T15:32:40.333Z,98819.17
2023-03-13T15:35:33.447Z,98823.77
2023-03-13T15:38:03.584Z,98818.91
2023-03-13T15:40:33.696Z,98820.20
2023-03-13T15:43:03.567Z,98820.11
2023-03-13T15:45:34.471Z,98821.92
2023-03-13T15:48:07.020Z,98821.75
2023-03-13T15:50:37.909Z,98820.42
2023-03-13T15:53:19.674Z,98816.86
2023-03-13T15:55:50.706Z,98812.20
2023-03-13T15:58:20.671Z,98815.48
2023-03-13T16:00:50.941Z,98821.50
2023-03-13T16:03:26.332Z,98822.54
2023-03-13T16:05:57.975Z,98827.64
2023-03-13T16:08:36.215Z,98834.85
2023-03-13T16:11:06.588Z,98835.71
2023-03-13T16:13:36.662Z,98845.69
2023-03-13T16:16:37.131Z,98841.20
2023-03-13T16:19:08.088Z,98848.73
2023-03-13T16:21:41.057Z,98853.23
2023-03-13T16:24:11.479Z,98852.70
2023-03-13T16:26:41.333Z,98846.40
2023-03-13T16:29:15.876Z,98840.59
2023-03-13T16:31:45.757Z,98835.79
2023-03-13T16:34:15.274Z,98829.88
2023-03-13T16:36:44.657Z,98817.13
2023-03-13T16:39:17.112Z,98811.98
2023-03-13T16:41:46.737Z,98807.95
2023-03-13T16:44:15.560Z,98810.23
2023-03-13T16:46:59.257Z,98811.80
2023-03-13T16:49:33.825Z,98813.77
2023-03-13T16:52:03.466Z,98820.18
2023-03-13T16:54:35.228Z,98826.59
2023-03-13T16:57:05.124Z,98834.14
2023-03-13T16:59:34.763Z,98834.50
2023-03-13T17:02:04.508Z,98836.77
2023-03-13T17:04:34.552Z,98842.41
2023-03-13T17:07:19.263Z,98840.70
2023-03-13T17:09:49.112Z,98835.63
2023-03-13T17:12:20.332Z,98832.86
2023-03-13T17:14:49.518Z,98836.88
2023-03-13T17:17:23.076Z,98824.00
2023-03-13T17:19:52.681Z,98823.16
2023-03-13T17:22:22.270Z,98821.00
2023-03-13T17:24:51.736Z,98810.97
2023-03-13T17:27:21.298Z,98807.71
2023-03-13T17:29:50.447Z,98806.30
2023-03-13T17:32:20.733Z,98806.07
2023-03-13T17:34:49.785Z,98809.08
2023-03-13T17:37:23.584Z,98806.46
2023-03-13T17:39:52.979Z,98803.26
2023-03-13T17:42:22.549Z,98803.18
2023-03-13T17:44:53.130Z,98808.14
2023-03-13T17:47:25.031Z,98816.25
2023-03-13T17:49:54.936Z,98815.77
2023-03-13T17:52:24.337Z,98820.16
2023-03-13T17:54:54.580Z,98822.16
2023-03-13T17:57:23.796Z,98818.09
2023-03-13T17:59:53.565Z,98818.06
2023-03-13T18:02:23.709Z,98811.88
2023-03-13T18:04:54.098Z,98809.63
2023-03-13T18:07:29.482Z,98807.44
2023-03-13T18:09:59.911Z,98800.11
2023-03-13T18:12:30.049Z,98799.11
2023-03-13T18:14:59.234Z,98804.23
2023-03-13T18:17:29.518Z,98806.23
2023-03-13T18:19:58.593Z,98806.84
2023-03-13T18:22:27.923Z,98805.20
2023-03-13T18:24:57.217Z,98805.08
2023-03-13T18:27:26.952Z,98803.21
2023-03-13T18:29:56.397Z,98803.38
2023-03-13T18:32:26.004Z,98805.43
2023-03-13T18:34:56.069Z,98803.73
2023-03-13T18:37:31.534Z,98807.76
2023-03-13T18:40:01.723Z,98812.54
2023-03-13T18:42:31.574Z,98821.73
2023-03-13T18:45:03.666Z,98823.04
2023-03-13T18:47:33.159Z,98821.81
2023-03-13T18:50:02.959Z,98824.27
2023-03-13T18:52:32.509Z,98818.23
2023-03-13T18:55:02.389Z,98802.98
2023-03-13T18:57:32.267Z,98803.66
2023-03-13T19:00:03.055Z,98804.77
2023-03-13T19:02:33.109Z,98806.61
2023-03-13T19:05:02.570Z,98800.60
2023-03-13T19:07:33.284Z,98806.02
2023-03-13T19:10:04.083Z,98806.83
2023-03-13T19:12:33.125Z,98806.48
2023-03-13T19:15:02.593Z,98800.85
2023-03-13T19:17:32.928Z,98802.16
2023-03-13T19:20:02.943Z,98796.63
2023-03-13T19:22:31.909Z,98794.84
2023-03-13T19:25:03.834Z,98801.27
2023-03-13T19:27:33.665Z,98803.49
2023-03-13T19:30:02.708Z,98806.89
2023-03-13T19:32:31.946Z,98799.73
2023-03-13T19:35:01.789Z,98796.64
2023-03-13T19:37:30.663Z,98798.55
2023-03-13T19:40:01.543Z,98807.30
2023-03-13T19:42:32.325Z,98799.23
2023-03-13T19:45:02.104Z,98805.52
2023-03-13T19:47:31.643Z,98803.75
2023-03-13T19:50:01.699Z,98806.04
2023-03-13T19:52:31.892Z,98807.91
2023-03-13T19:55:05.366Z,98809.80
2023-03-13T19:57:35.363Z,98798.46
2023-03-13T20:00:06.697Z,98792.89
2023-03-13T20:02:36.339Z,98785.21
2023-03-13T20:05:07.470Z,98774.88
2023-03-13T20:07:39.619Z,98774.57
2023-03-13T20:10:09.909Z,98763.03
2023-03-13T20:12:41.796Z,98757.48
2023-03-13T20:15:13.844Z,98745.30
2023-03-13T20:17:44.707Z,98745.80
2023-03-13T20:20:15.781Z,98748.85
2023-03-13T20:22:47.880Z,98749.65
2023-03-13T20:25:17.908Z,98745.20
2023-03-13T20:27:47.258Z,98745.22
2023-03-13T20:30:19.776Z,98739.61
2023-03-13T20:32:59.178Z,98736.82
2023-03-13T20:35:29.633Z,98735.12
2023-03-13T20:38:02.150Z,98742.20
2023-03-13T20:40:33.686Z,98735.30
2023-03-13T20:43:05.023Z,98731.59
2023-03-13T20:45:36.757Z,98730.84
2023-03-13T20:48:07.659Z,98728.79
2023-03-13T20:50:37.438Z,98720.55
2023-03-13T20:53:09.758Z,98707.34
2023-03-13T20:55:42.632Z,98701.79
2023-03-13T20:58:13.641Z,98703.88
2023-03-13T21:00:45.096Z,98701.83
2023-03-13T21:03:15.993Z,98691.54
2023-03-13T21:05:46.497Z,98688.08
2023-03-13T21:08:16.654Z,98679.30
2023-03-13T21:10:46.729Z,98666.49
2023-03-13T21:13:16.529Z,98661.40
2023-03-13T21:15:46.756Z,98656.64
2023-03-13T21:18:16.197Z,98648.93
2023-03-13T21:20:46.809Z,98653.59
2023-03-13T21:23:17.385Z,98649.52
2023-03-13T21:25:54.343Z,98640.92
2023-03-13T21:28:23.698Z,98639.09
2023-03-13T21:30:54.485Z,98638.85
2023-03-13T21:33:25.074Z,98639.81
2023-03-13T21:35:54.842Z,98641.14
2023-03-13T21:38:23.919Z,98649.17
2023-03-13T21:40:54.100Z,98643.52
2023-03-13T21:43:24.311Z,98634.48
2023-03-13T21:45:53.588Z,98639.75
2023-03-13T21:48:22.856Z,98640.94
2023-03-13T21:50:53.530Z,98642.98
2023-03-13T21:53:22.401Z,98639.92
2023-03-13T21:55:53.357Z,98634.53
2023-03-13T21:58:22.445Z,98641.98
2023-03-13T22:00:55.634Z,98646.49
2023-03-13T22:03:27.147Z,98646.03
2023-03-13T22:05:56.636Z,98639.83
2023-03-13T22:08:25.835Z,98634.59
2023-03-13T22:10:55.626Z,98632.77
2023-03-13T22:13:24.816Z,98625.86
2023-03-13T22:15:54.204Z,98621.73
2023-03-13T22:18:24.143Z,98614.77
2023-03-13T22:20:53.338Z,98612.12
2023-03-13T22:23:22.211Z,98615.50
2023-03-13T22:25:51.905Z,98617.50
2023-03-13T22:28:21.032Z,98614.27
2023-03-13T22:30:50.543Z,98613.97
2023-03-13T22:33:19.668Z,98611.50
2023-03-13T22:35:54.974Z,98606.45
2023-03-13T22:38:23.898Z,98608.31
2023-03-13T22:41:07.928Z,98606.75
2023-03-13T22:43:37.234Z,98598.08
2023-03-13T22:46:07.596Z,98589.82
2023-03-13T22:48:37.415Z,98592.30
2023-03-13T22:51:10.323Z,98591.54
2023-03-13T22:53:41.151Z,98584.89
2023-03-13T22:56:12.595Z,98584.67
2023-03-13T22:58:42.674Z,98585.68
2023-03-13T23:01:17.368Z,98588.64
2023-03-13T23:03:46.878Z,98596.23
2023-03-13T23:06:18.275Z,98599.73
2023-03-13T23:08:47.415Z,98593.44
2023-03-13T23:11:17.153Z,98592.54
2023-03-13T23:13:46.149Z,98580.48
2023-03-13T23:16:15.592Z,98573.00
2023-03-13T23:18:45.583Z,98577.70
2023-03-13T23:21:16.931Z,98578.30
2023-03-13T23:23:47.621Z,98575.30
2023-03-13T23:26:17.216Z,98576.42
2023-03-13T23:28:46.773Z,98565.75
2023-03-13T23:31:21.935Z,98565.60
2023-03-13T23:33:51.398Z,98555.51
2023-03-13T23:36:20.772Z,98551.14
2023-03-13T23:38:51.881Z,98546.73
2023-03-13T23:41:22.129Z,98543.67
2023-03-13T23:43:51.008Z,98535.20
2023-03-13T23:46:26.790Z,98526.03
2023-03-13T23:48:57.868Z,98525.45
2023-03-13T23:51:27.835Z,98520.66
2023-03-13T23:53:56.944Z,98514.60
2023-03-13T23:56:26.269Z,98520.99
2023-03-13T23:58:55.480Z,98522.19
